Time;durP1;ratioP1;P1;durP2;ratioP2;P2;SDS_P1;SDS_P2;PMS_P1;PMS_P2;Temp;Humidity;BMP_temperature;BMP_pressure;BME280_temperature;BME280_humidity;BME280_pressure;Samples;Min_cycle;Max_cycle;Signal;HPM_P1;HPM_P2
2023/05/23 00:02:17;;;;;;;5.40;4.50;;;;;;;15.90;57.69;99745.04;106267;1254;60473;-77
2023/05/23 00:04:45;;;;;;;6.60;4.40;;;;;;;15.86;57.62;99746.31;105956;1255;60435;-76
2023/05/23 00:07:12;;;;;;;7.10;4.40;;;;;;;15.81;57.76;99740.45;105804;1261;73802;-78
2023/05/23 00:09:40;;;;;;;5.00;4.50;;;;;;;15.78;57.80;99738.91;105866;1260;68651;-78
2023/05/23 00:12:07;;;;;;;7.20;4.80;;;;;;;15.74;57.92;99733.05;106164;1254;71578;-79
2023/05/23 00:14:34;;;;;;;5.40;4.40;;;;;;;15.71;58.00;99728.23;106772;1256;60436;-77
2023/05/23 00:17:02;;;;;;;6.80;4.70;;;;;;;15.68;57.96;99729.66;106406;1254;60299;-76
2023/05/23 00:19:30;;;;;;;5.00;3.90;;;;;;;15.66;58.14;99727.44;106241;1254;73877;-78
2023/05/23 00:21:58;;;;;;;4.40;3.80;;;;;;;15.64;58.10;99725.63;105970;1255;71372;-78
2023/05/23 00:24:26;;;;;;;4.70;3.90;;;;;;;15.61;58.21;99720.33;105703;1258;72985;-78
2023/05/23 00:26:53;;;;;;;5.40;3.80;;;;;;;15.58;58.31;99721.92;105946;1260;60503;-79
2023/05/23 00:29:20;;;;;;;5.00;4.20;;;;;;;15.54;58.28;99718.94;106072;1260;60596;-79
2023/05/23 00:31:49;;;;;;;4.50;4.00;;;;;;;15.52;58.46;99719.65;106033;1255;73791;-80
2023/05/23 00:34:16;;;;;;;6.10;4.20;;;;;;;15.49;58.44;99718.81;106364;1260;69404;-78
2023/05/23 00:36:46;;;;;;;6.30;4.20;;;;;;;15.46;58.56;99717.20;106866;1256;72802;-79
2023/05/23 00:39:18;;;;;;;4.40;4.00;;;;;;;15.43;58.57;99720.11;107139;1261;59305;-78
2023/05/23 00:41:48;;;;;;;4.90;3.90;;;;;;;15.41;58.82;99719.45;106098;1257;62226;-81
2023/05/23 00:44:19;;;;;;;4.60;4.00;;;;;;;15.41;58.80;99717.21;106226;1254;72505;-77
2023/05/23 00:46:52;;;;;;;4.80;4.00;;;;;;;15.39;58.93;99717.77;106338;1261;70748;-80
2023/05/23 00:49:21;;;;;;;4.50;3.80;;;;;;;15.36;58.89;99712.63;106311;1256;71096;-76
2023/05/23 00:51:49;;;;;;;5.60;4.40;;;;;;;15.35;58.87;99709.36;106010;1256;60387;-78
2023/05/23 00:54:24;;;;;;;5.40;4.10;;;;;;;15.34;59.01;99708.30;106174;1255;60435;-78
2023/05/23 00:56:52;;;;;;;6.90;4.60;;;;;;;15.32;59.26;99705.98;106206;1260;73853;-79
2023/05/23 00:59:20;;;;;;;6.00;4.30;;;;;;;15.30;59.29;99703.96;106143;1255;68204;-77
2023/05/23 01:01:48;;;;;;;4.50;3.70;;;;;;;15.27;59.44;99699.00;105997;1256;73168;-79
2023/05/23 01:04:18;;;;;;;4.10;3.60;;;;;;;15.20;59.56;99697.08;106121;1258;60883;-78
2023/05/23 01:06:47;;;;;;;4.30;3.90;;;;;;;15.14;59.59;99694.27;106006;1255;60287;-77
2023/05/23 01:09:15;;;;;;;4.30;3.50;;;;;;;15.10;59.64;99689.02;105845;1254;72514;-78
2023/05/23 01:12:05;;;;;;;5.60;4.40;;;;;;;15.08;59.68;99688.80;105919;1255;69959;-77
2023/05/23 01:15:02;;;;;;;5.50;3.80;;;;;;;15.05;59.57;99690.17;106122;1256;71409;-79
2023/05/23 01:17:43;;;;;;;4.50;4.10;;;;;;;15.04;59.56;99688.61;107968;1259;58849;-79
2023/05/23 01:20:21;;;;;;;5.40;4.20;;;;;;;15.04;59.72;99693.96;106898;1260;60291;-76
2023/05/23 01:22:59;;;;;;;4.00;3.60;;;;;;;15.03;59.54;99699.03;105936;1255;71668;-78
2023/05/23 01:25:49;;;;;;;5.40;3.90;;;;;;;15.03;59.46;99699.98;106510;1260;70188;-76
2023/05/23 01:28:18;;;;;;;4.50;3.80;;;;;;;15.03;59.53;99700.42;106103;1258;71468;-75
2023/05/23 01:30:47;;;;;;;4.20;3.60;;;;;;;15.04;59.47;99699.30;106216;1254;60956;-76
2023/05/23 01:33:15;;;;;;;5.30;3.60;;;;;;;15.04;59.55;99696.05;107184;1256;60339;-76
2023/05/23 01:35:43;;;;;;;4.50;3.50;;;;;;;15.04;59.40;99694.41;108419;1255;71624;-79
2023/05/23 01:38:11;;;;;;;4.60;3.20;;;;;;;15.05;59.43;99697.55;108658;1254;68944;-78
2023/05/23 01:40:38;;;;;;;4.10;3.20;;;;;;;15.05;59.47;99695.25;108832;1255;71451;-77
2023/05/23 01:43:05;;;;;;;4.70;3.40;;;;;;;15.05;59.47;99693.52;108782;1255;59001;-78
2023/05/23 01:45:33;;;;;;;4.90;3.80;;;;;;;15.05;59.68;99695.82;108457;1254;59253;-79
2023/05/23 01:48:02;;;;;;;4.90;3.90;;;;;;;15.03;59.62;99694.95;108548;1255;73259;-77
2023/05/23 01:50:31;;;;;;;5.00;3.70;;;;;;;15.02;59.70;99694.20;108179;1255;70159;-80
2023/05/23 01:52:59;;;;;;;4.40;3.30;;;;;;;15.00;59.83;99691.42;108177;1255;71629;-77
2023/05/23 01:55:27;;;;;;;4.70;3.70;;;;;;;14.98;59.69;99690.94;108362;1254;59428;-80
2023/05/23 01:57:55;;;;;;;4.90;3.30;;;;;;;14.96;59.77;99691.04;108020;1255;59185;-79
2023/05/23 02:00:23;;;;;;;7.20;3.50;;;;;;;14.95;59.93;99690.09;108494;1255;72811;-79
2023/05/23 02:02:51;;;;;;;4.50;3.70;;;;;;;14.93;59.85;99689.42;108204;1255;68827;-80
2023/05/23 02:05:19;;;;;;;4.40;3.60;;;;;;;14.92;59.77;99688.67;108122;1255;72534;-81
2023/05/23 02:07:46;;;;;;;5.00;3.50;;;;;;;14.92;59.78;99690.11;108512;1256;60640;-80
2023/05/23 02:10:16;;;;;;;5.30;3.70;;;;;;;14.92;59.86;99687.65;108544;1255;59156;-82
2023/05/23 02:12:44;;;;;;;3.90;3.50;;;;;;;14.90;59.92;99685.13;107068;1255;73014;-79
2023/05/23 02:15:11;;;;;;;3.40;3.10;;;;;;;14.91;59.92;99682.41;107560;1258;68910;-79
2023/05/23 02:17:40;;;;;;;5.00;3.30;;;;;;;14.91;60.00;99680.44;107093;1255;72524;-78
2023/05/23 02:20:09;;;;;;;5.60;3.60;;;;;;;14.89;59.98;99679.60;107474;1255;60566;-80
2023/05/23 02:22:37;;;;;;;5.10;3.40;;;;;;;14.88;59.92;99675.37;107397;1256;58973;-79
2023/05/23 02:25:05;;;;;;;4.60;3.50;;;;;;;14.86;59.94;99672.36;107564;1256;72589;-79
2023/05/23 02:27:33;;;;;;;6.30;3.80;;;;;;;14.85;59.99;99669.21;107771;1255;69476;-77
2023/05/23 02:30:00;;;;;;;4.00;3.30;;;;;;;14.86;59.80;99671.60;107540;1255;71082;-79
2023/05/23 02:32:28;;;;;;;3.90;3.30;;;;;;;14.87;60.15;99668.62;107062;1256;59192;-80
2023/05/23 02:34:57;;;;;;;4.60;3.30;;;;;;;14.87;59.85;99669.69;107621;1255;60452;-82
2023/05/23 02:37:24;;;;;;;4.80;3.70;;;;;;;14.88;60.11;99668.33;107633;1255;72924;-81
2023/05/23 02:39:52;;;;;;;5.00;3.40;;;;;;;14.89;60.22;99670.83;107888;1255;69401;-77
2023/05/23 02:42:21;;;;;;;5.30;2.80;;;;;;;14.90;60.17;99667.77;107182;1260;72500;-79
2023/05/23 02:44:48;;;;;;;4.30;3.40;;;;;;;14.90;60.09;99665.45;107490;1256;60552;-79
2023/05/23 02:47:17;;;;;;;3.70;3.30;;;;;;;14.90;60.27;99659.58;107617;1255;60301;-78
2023/05/23 02:49:44;;;;;;;3.70;3.30;;;;;;;14.90;60.43;99656.86;107321;1260;72611;-78
2023/05/23 02:52:12;;;;;;;4.50;4.10;;;;;;;14.89;60.46;99664.27;107331;1255;70609;-80
2023/05/23 02:54:40;;;;;;;4.00;3.30;;;;;;;14.89;60.38;99666.36;106469;1254;71552;-81
2023/05/23 02:57:08;;;;;;;3.80;3.50;;;;;;;14.89;60.48;99666.07;105893;1261;60458;-78
2023/05/23 02:59:36;;;;;;;3.70;2.90;;;;;;;14.89;60.35;99665.16;105955;1256;60328;-81
2023/05/23 03:02:03;;;;;;;5.70;4.10;;;;;;;14.90;60.58;99665.45;105833;1255;72645;-80
2023/05/23 03:04:31;;;;;;;6.30;4.20;;;;;;;14.90;60.53;99665.54;105964;1256;69784;-83
2023/05/23 03:06:58;;;;;;;5.20;3.90;;;;;;;14.91;60.58;99664.34;106239;1256;72236;-80
2023/05/23 03:09:26;;;;;;;6.00;3.40;;;;;;;14.94;60.68;99662.56;105778;1254;60492;-78
2023/05/23 03:11:53;;;;;;;4.70;3.90;;;;;;;14.97;60.73;99661.83;105619;1264;60365;-78
2023/05/23 03:14:21;;;;;;;5.10;3.60;;;;;;;15.00;60.92;99662.83;105754;1261;73856;-78
2023/05/23 03:16:48;;;;;;;4.20;3.80;;;;;;;15.02;60.95;99662.80;106301;1256;70585;-79
2023/05/23 03:19:15;;;;;;;5.20;4.00;;;;;;;15.04;61.06;99661.33;105880;1256;72695;-77
2023/05/23 03:21:43;;;;;;;6.60;4.00;;;;;;;15.06;61.19;99663.84;105819;1256;62047;-74
2023/05/23 03:24:11;;;;;;;5.80;3.80;;;;;;;15.09;61.10;99663.48;105762;1261;60350;-75
2023/05/23 03:26:38;;;;;;;9.20;4.00;;;;;;;15.12;61.20;99662.93;105702;1256;72555;-77
2023/05/23 03:29:06;;;;;;;5.70;3.60;;;;;;;15.15;61.17;99662.72;105882;1255;70969;-80
2023/05/23 03:31:33;;;;;;;7.70;4.20;;;;;;;15.19;61.19;99665.27;106286;1258;71446;-82
2023/05/23 03:34:04;;;;;;;6.20;4.20;;;;;;;15.21;61.17;99665.39;106658;1255;60637;-84
2023/05/23 03:36:38;;;;;;;7.60;4.60;;;;;;;15.22;61.19;99664.32;107691;1260;60318;-81
2023/05/23 03:39:05;;;;;;;9.30;4.60;;;;;;;15.25;61.14;99667.41;108824;1254;72499;-78
2023/05/23 03:41:34;;;;;;;8.30;4.60;;;;;;;15.30;60.97;99662.00;108027;1254;69284;-80
2023/05/23 03:44:02;;;;;;;7.10;4.20;;;;;;;15.35;61.10;99658.60;108279;1256;73758;-79
2023/05/23 03:46:30;;;;;;;7.60;4.70;;;;;;;15.42;60.83;99664.60;107677;1256;60468;-83
2023/05/23 03:48:58;;;;;;;7.80;4.60;;;;;;;15.48;60.72;99659.70;108014;1255;61795;-80
2023/05/23 03:51:26;;;;;;;8.10;4.90;;;;;;;15.54;60.86;99664.57;108283;1256;73459;-80
2023/05/23 03:53:54;;;;;;;7.10;5.10;;;;;;;15.61;60.56;99663.73;108244;1256;69151;-79
2023/05/23 03:56:22;;;;;;;8.20;5.10;;;;;;;15.66;60.65;99663.73;106416;1256;71340;-82
2023/05/23 03:58:50;;;;;;;5.00;4.40;;;;;;;15.71;60.56;99660.21;106784;1255;60552;-82
2023/05/23 04:01:18;;;;;;;10.50;5.00;;;;;;;15.77;60.47;99656.79;106841;1256;61052;-84
2023/05/23 04:03:46;;;;;;;6.30;4.40;;;;;;;15.84;60.52;99656.88;106716;1254;72723;-83
2023/05/23 04:06:16;;;;;;;5.50;4.20;;;;;;;15.91;60.26;99657.91;106556;1255;69097;-82
2023/05/23 04:08:45;;;;;;;8.00;4.10;;;;;;;15.99;60.10;99659.04;106104;1254;72774;-82
2023/05/23 04:11:13;;;;;;;9.70;4.80;;;;;;;16.06;59.92;99661.44;106093;1259;60592;-81
2023/05/23 04:13:41;;;;;;;8.40;4.70;;;;;;;16.13;59.95;99662.46;106093;1259;60404;-79
2023/05/23 04:16:10;;;;;;;5.30;4.40;;;;;;;16.20;59.68;99662.98;106257;1255;74894;-80
2023/05/23 04:18:37;;;;;;;7.70;4.60;;;;;;;16.29;59.47;99661.43;105930;1256;72159;-81
2023/05/23 04:21:06;;;;;;;9.00;4.40;;;;;;;16.42;59.24;99659.36;106287;1256;72730;-82
2023/05/23 04:23:38;;;;;;;5.50;4.70;;;;;;;16.60;59.05;99652.27;106276;1261;60558;-85
2023/05/23 04:26:09;;;;;;;7.30;5.20;;;;;;;16.79;58.81;99652.77;106315;1260;61298;-83
2023/05/23 04:28:42;;;;;;;9.50;4.90;;;;;;;16.93;58.42;99654.85;106417;1255;72626;-86
2023/05/23 04:31:11;;;;;;;6.90;5.00;;;;;;;17.06;58.11;99652.94;106735;1256;70826;-85
2023/05/23 04:33:39;;;;;;;7.20;5.60;;;;;;;17.17;58.03;99656.50;106904;1259;71680;-84
2023/05/23 04:36:10;;;;;;;10.30;5.30;;;;;;;17.30;57.82;99657.62;107058;1259;61946;-85
2023/05/23 04:38:41;;;;;;;8.40;5.50;;;;;;;17.45;57.66;99660.40;106496;1259;60304;-84
2023/05/23 04:41:11;;;;;;;7.50;5.20;;;;;;;17.58;57.59;99661.48;106522;1257;73855;-83
2023/05/23 04:43:58;;;;;;;7.50;5.40;;;;;;;17.69;57.51;99666.91;106578;1255;72394;-85
2023/05/23 04:46:52;;;;;;;8.50;7.60;;;;;;;17.77;57.29;99662.14;106551;1256;73087;-84
2023/05/23 04:49:24;;;;;;;9.10;6.90;;;;;;;17.83;57.12;99665.47;107415;1255;59202;-84
2023/05/23 04:51:51;;;;;;;7.80;5.80;;;;;;;17.87;57.02;99665.25;107044;1256;60485;-84
2023/05/23 04:54:26;;;;;;;5.90;5.30;;;;;;;17.91;56.94;99662.91;108547;1255;72527;-84
2023/05/23 04:56:55;;;;;;;7.40;5.40;;;;;;;17.97;56.93;99667.77;109015;1256;68071;-84
2023/05/23 04:59:26;;;;;;;7.70;5.40;;;;;;;18.04;56.83;99667.02;107218;1255;71843;-84
2023/05/23 05:01:53;;;;;;;7.70;5.00;;;;;;;18.09;56.81;99662.15;106267;1255;60449;-82
2023/05/23 05:04:22;;;;;;;9.90;5.60;;;;;;;18.13;56.86;99665.50;107467;1256;60327;-85
2023/05/23 05:06:51;;;;;;;7.00;5.80;;;;;;;18.20;56.85;99664.95;108473;1255;72654;-83
2023/05/23 05:09:20;;;;;;;8.80;5.50;;;;;;;18.27;56.82;99666.01;108843;1254;68712;-85
2023/05/23 05:11:48;;;;;;;8.30;5.50;;;;;;;18.36;56.74;99667.05;107629;1256;71200;-83
2023/05/23 05:14:16;;;;;;;8.60;5.60;;;;;;;18.48;56.66;99668.39;107058;1254;60537;-83
2023/05/23 05:16:44;;;;;;;8.00;5.90;;;;;;;18.60;56.56;99667.89;107204;1255;59114;-85
2023/05/23 05:19:12;;;;;;;8.60;5.30;;;;;;;18.71;56.32;99667.95;107581;1256;72854;-88
2023/05/23 05:21:40;;;;;;;8.40;5.60;;;;;;;18.81;56.18;99675.11;108206;1255;70832;-83
2023/05/23 05:24:11;;;;;;;6.30;5.60;;;;;;;18.92;55.95;99672.36;106042;1259;71543;-77
2023/05/23 05:26:41;;;;;;;5.80;5.20;;;;;;;19.00;56.10;99671.30;105745;1256;261233;-78
2023/05/23 05:30:09;;;;;;;6.90;5.50;;;;;;;19.12;56.42;99668.59;102948;1292;600202;-77
2023/05/23 05:32:46;;;;;;;7.90;6.00;;;;;;;19.24;56.48;99663.76;105092;1273;60095;-76
2023/05/23 05:35:14;;;;;;;7.80;5.70;;;;;;;19.36;56.39;99663.48;105145;1269;60092;-78
2023/05/23 05:37:43;;;;;;;8.30;5.30;;;;;;;19.47;56.37;99661.05;105182;1267;71134;-77
2023/05/23 05:40:12;;;;;;;11.30;5.60;;;;;;;19.56;56.34;99665.62;105200;1272;68896;-77
2023/05/23 05:42:41;;;;;;;7.20;5.70;;;;;;;19.62;56.19;99668.70;104894;1271;191607;-76
2023/05/23 05:45:10;;;;;;;8.30;6.10;;;;;;;19.68;55.88;99667.72;105693;1271;59266;-76
2023/05/23 05:47:39;;;;;;;10.00;7.40;;;;;;;19.71;55.56;99667.91;106331;1271;59260;-75
2023/05/23 05:50:08;;;;;;;14.70;12.90;;;;;;;19.71;55.43;99665.13;106033;1266;71128;-76
2023/05/23 05:52:38;;;;;;;7.30;5.70;;;;;;;19.72;55.39;99666.29;105128;1266;69733;-78
2023/05/23 05:55:07;;;;;;;6.60;5.40;;;;;;;19.73;55.39;99668.27;105849;1263;71973;-76
2023/05/23 05:57:37;;;;;;;7.60;5.10;;;;;;;19.77;55.14;99666.96;106153;1261;60084;-79
2023/05/23 06:00:12;;;;;;;8.80;5.70;;;;;;;19.79;54.73;99663.77;106821;1259;61320;-79
2023/05/23 06:02:47;;;;;;;6.70;5.60;;;;;;;19.82;54.77;99665.52;106278;1254;72197;-77
2023/05/23 06:05:18;;;;;;;7.40;5.60;;;;;;;19.88;54.60;99663.35;106481;1261;69190;-78
2023/05/23 06:07:47;;;;;;;7.80;5.60;;;;;;;19.91;54.23;99662.52;106690;1262;71601;-78
2023/05/23 06:10:15;;;;;;;8.40;5.70;;;;;;;19.92;54.24;99658.83;106087;1258;60063;-79
2023/05/23 06:12:44;;;;;;;9.60;5.80;;;;;;;19.92;54.38;99658.77;105819;1256;59718;-77
2023/05/23 06:15:13;;;;;;;11.80;5.60;;;;;;;19.94;54.15;99656.66;106062;1260;71018;-79
2023/05/23 06:17:41;;;;;;;8.10;5.30;;;;;;;19.97;54.01;99657.48;106032;1254;69370;-77
2023/05/23 06:20:09;;;;;;;9.50;5.20;;;;;;;20.02;53.88;99656.33;105997;1257;72329;-76
2023/05/23 06:22:38;;;;;;;6.60;4.30;;;;;;;20.12;53.68;99653.97;105780;1253;60251;-79
2023/05/23 06:25:06;;;;;;;7.80;5.20;;;;;;;20.23;53.50;99654.55;106166;1259;60036;-78
2023/05/23 06:27:34;;;;;;;6.10;4.90;;;;;;;20.33;53.37;99651.01;106203;1253;72257;-77
2023/05/23 06:30:05;;;;;;;7.30;4.70;;;;;;;20.43;53.11;99653.52;106577;1259;69428;-77
2023/05/23 06:32:33;;;;;;;9.70;5.30;;;;;;;20.54;52.97;99651.21;106201;1260;72796;-77
2023/05/23 06:35:01;;;;;;;6.20;4.60;;;;;;;20.61;52.77;99650.96;106061;1254;60169;-76
2023/05/23 06:37:38;;;;;;;7.70;4.30;;;;;;;20.67;52.83;99644.57;107301;1253;60568;-79
2023/05/23 06:40:08;;;;;;;7.20;3.90;;;;;;;20.74;52.79;99646.62;108929;1254;71782;-78
2023/05/23 06:42:36;;;;;;;4.40;3.80;;;;;;;20.81;52.48;99642.92;108799;1254;68620;-78
2023/05/23 06:45:22;;;;;;;5.30;3.20;;;;;;;20.81;52.33;99642.51;108814;1254;71430;-77
2023/05/23 06:47:50;;;;;;;4.70;3.80;;;;;;;20.80;52.44;99635.64;109082;1254;59010;-79
2023/05/23 06:50:18;;;;;;;6.50;3.70;;;;;;;20.82;52.52;99633.77;109188;1254;58844;-79
2023/05/23 06:52:46;;;;;;;4.20;3.10;;;;;;;20.85;52.36;99632.09;109243;1254;71864;-79
2023/05/23 06:55:17;;;;;;;4.40;3.50;;;;;;;20.89;52.28;99632.06;109290;1253;68701;-78
2023/05/23 06:57:46;;;;;;;5.60;3.80;;;;;;;20.90;52.15;99630.91;109396;1254;71391;-76
2023/05/23 07:00:13;;;;;;;5.10;4.10;;;;;;;20.91;52.20;99629.40;109323;1253;59255;-78
2023/05/23 07:02:50;;;;;;;5.10;3.70;;;;;;;20.95;52.18;99626.38;109348;1254;58901;-77
2023/05/23 07:05:19;;;;;;;8.00;4.10;;;;;;;21.01;52.20;99623.83;109304;1254;72042;-80
2023/05/23 07:07:47;;;;;;;7.50;4.20;;;;;;;21.06;52.05;99625.83;109277;1254;69193;-80
2023/05/23 07:10:15;;;;;;;9.30;4.80;;;;;;;21.13;52.20;99623.88;109152;1254;71250;-79
2023/05/23 07:12:43;;;;;;;6.40;4.70;;;;;;;21.17;52.45;99624.04;109189;1254;58791;-78
2023/05/23 07:15:11;;;;;;;5.90;4.10;;;;;;;21.25;52.43;99621.17;109280;1252;59030;-78
2023/05/23 07:17:45;;;;;;;5.40;4.60;;;;;;;21.35;52.20;99618.07;109301;1253;71927;-80
2023/05/23 07:20:12;;;;;;;7.00;5.00;;;;;;;21.45;52.02;99620.09;109189;1254;68963;-78
2023/05/23 07:22:40;;;;;;;5.10;4.60;;;;;;;21.49;52.09;99617.70;109288;1254;71104;-79
2023/05/23 07:25:08;;;;;;;7.90;4.40;;;;;;;21.52;52.09;99621.54;109242;1256;58920;-79
2023/05/23 07:27:35;;;;;;;9.80;5.10;;;;;;;21.57;52.09;99618.94;108576;1254;59522;-78
2023/05/23 07:30:08;;;;;;;6.50;5.00;;;;;;;21.63;52.11;99619.55;108936;1254;71643;-76
2023/05/23 07:33:27;;;;;;;17.10;10.90;;;;;;;21.66;52.09;99615.66;109247;1254;69077;-79
2023/05/23 07:35:59;;;;;;;6.30;5.40;;;;;;;21.69;52.07;99615.17;109420;1254;71442;-78
2023/05/23 07:38:27;;;;;;;7.70;5.50;;;;;;;21.73;52.22;99614.33;109190;1253;58950;-77
2023/05/23 07:40:54;;;;;;;8.20;5.30;;;;;;;21.78;52.23;99612.75;109342;1253;58748;-80
2023/05/23 07:43:38;;;;;;;6.90;4.80;;;;;;;21.84;52.20;99613.76;109256;1253;71555;-78
2023/05/23 07:46:06;;;;;;;6.50;4.70;;;;;;;21.92;52.08;99610.15;109212;1254;69140;-77
2023/05/23 07:48:33;;;;;;;5.10;4.30;;;;;;;21.98;51.79;99609.82;109248;1253;71690;-80
2023/05/23 07:51:02;;;;;;;7.40;4.80;;;;;;;22.04;51.41;99609.70;109406;1253;58812;-79
2023/05/23 07:53:30;;;;;;;6.00;5.10;;;;;;;22.10;51.40;99608.05;109409;1253;58768;-78
2023/05/23 07:55:58;;;;;;;9.60;5.10;;;;;;;22.16;51.57;99603.23;109218;1254;71730;-78
2023/05/23 07:58:27;;;;;;;6.50;4.50;;;;;;;22.22;51.51;99598.60;109375;1254;70083;-79
2023/05/23 08:00:56;;;;;;;8.50;4.60;;;;;;;22.29;51.07;99597.15;109420;1253;73646;-78
2023/05/23 08:03:56;;;;;;;8.70;4.50;;;;;;;22.36;50.58;99592.30;109240;1253;59320;-79
2023/05/23 08:06:30;;;;;;;6.60;4.30;;;;;;;22.45;50.13;99590.02;109386;1254;58816;-79
2023/05/23 08:09:00;;;;;;;8.50;4.30;;;;;;;22.50;49.92;99588.84;109152;1254;71940;-79
2023/05/23 08:11:29;;;;;;;11.80;4.40;;;;;;;22.58;49.58;99585.11;109303;1252;68849;-80
2023/05/23 08:15:07;;;;;;;7.30;6.60;;;;;;;22.70;49.19;99582.83;106262;1291;599984;-79
2023/05/23 08:17:40;;;;;;;6.40;4.40;;;;;;;22.76;49.24;99582.89;108502;1266;58764;-78
2023/05/23 08:20:09;;;;;;;7.60;4.40;;;;;;;22.86;49.08;99579.43;108526;1266;58794;-80
2023/05/23 08:22:36;;;;;;;9.00;4.10;;;;;;;22.96;48.92;99575.93;108586;1267;70550;-79
2023/05/23 08:25:05;;;;;;;6.30;4.10;;;;;;;23.05;48.66;99576.59;108408;1267;68730;-79
2023/05/23 08:27:38;;;;;;;5.60;3.90;;;;;;;23.11;48.64;99575.58;108069;1263;158999;-77
2023/05/23 08:30:16;;;;;;;6.80;3.80;;;;;;;23.20;48.58;99573.89;108759;1263;58773;-79
2023/05/23 08:32:43;;;;;;;4.90;3.60;;;;;;;23.33;48.46;99566.73;108670;1263;59061;-79
2023/05/23 08:35:11;;;;;;;5.30;3.90;;;;;;;23.47;48.13;99567.41;108817;1263;70681;-79
2023/05/23 08:37:40;;;;;;;5.50;3.90;;;;;;;23.60;47.90;99559.98;108914;1259;69032;-81
2023/05/23 08:40:13;;;;;;;11.30;4.00;;;;;;;23.77;47.69;99554.98;108672;1260;71399;-80
2023/05/23 08:42:49;;;;;;;7.10;3.40;;;;;;;23.94;46.75;99554.86;107906;1261;59247;-77
2023/05/23 08:45:18;;;;;;;4.90;3.40;;;;;;;24.13;46.64;99556.61;109060;1256;58810;-77
2023/05/23 08:47:45;;;;;;;7.60;3.80;;;;;;;24.34;46.52;99554.66;108859;1257;71590;-79
2023/05/23 08:50:15;;;;;;;5.50;3.30;;;;;;;24.55;46.21;99549.85;108566;1256;68917;-79
2023/05/23 08:52:55;;;;;;;4.50;3.60;;;;;;;24.76;45.40;99548.46;108550;1257;71085;-78
2023/05/23 08:55:27;;;;;;;4.50;3.00;;;;;;;24.97;44.62;99546.79;108915;1257;58954;-78
2023/05/23 08:57:58;;;;;;;9.30;4.00;;;;;;;25.14;44.15;99547.64;108838;1256;58757;-80
2023/05/23 09:00:33;;;;;;;6.10;4.70;;;;;;;25.27;43.78;99537.91;109090;1256;71807;-78
2023/05/23 09:03:01;;;;;;;6.30;3.80;;;;;;;25.38;43.85;99537.58;109143;1257;69333;-80
2023/05/23 09:05:49;;;;;;;4.60;4.00;;;;;;;25.60;43.69;99540.59;109012;1256;71301;-78
2023/05/23 09:08:18;;;;;;;5.70;3.50;;;;;;;25.77;43.38;99539.70;109152;1257;58776;-80
2023/05/23 09:10:48;;;;;;;4.10;3.70;;;;;;;25.97;42.92;99536.05;109166;1256;58815;-78
2023/05/23 09:13:19;;;;;;;5.40;3.30;;;;;;;26.22;42.50;99528.81;109246;1253;74096;-77
2023/05/23 09:15:58;;;;;;;4.50;3.50;;;;;;;26.52;42.30;99522.29;109023;1256;71720;-79
2023/05/23 09:18:42;;;;;;;5.80;4.10;;;;;;;26.95;41.62;99524.37;107610;1260;71799;-77
2023/05/23 09:21:12;;;;;;;6.30;5.50;;;;;;;27.47;40.48;99522.07;106189;1259;59739;-79
2023/05/23 09:23:45;;;;;;;10.40;4.50;;;;;;;27.99;39.89;99518.61;105952;1254;59538;-79
2023/05/23 09:26:13;;;;;;;5.10;3.50;;;;;;;28.53;39.46;99520.91;105783;1254;73010;-80
2023/05/23 09:28:41;;;;;;;4.10;3.70;;;;;;;29.06;38.52;99516.61;105951;1254;72305;-77
2023/05/23 09:31:09;;;;;;;7.80;3.80;;;;;;;29.53;38.00;99517.45;105712;1254;72871;-77
2023/05/23 09:33:47;;;;;;;6.70;3.70;;;;;;;30.08;37.44;99514.14;105872;1254;60256;-79
2023/05/23 09:36:15;;;;;;;4.60;3.50;;;;;;;30.76;36.70;99508.65;105733;1261;59266;-79
2023/05/23 09:38:45;;;;;;;6.00;3.70;;;;;;;31.34;35.94;99504.19;106049;1258;73242;-79
2023/05/23 09:41:12;;;;;;;6.80;3.60;;;;;;;31.89;35.29;99500.65;105759;1254;68701;-77
2023/05/23 09:43:50;;;;;;;3.80;3.40;;;;;;;32.44;34.44;99494.21;105757;1259;71381;-80
2023/05/23 09:46:19;;;;;;;4.80;3.30;;;;;;;32.92;33.93;99495.29;105717;1256;59595;-79
2023/05/23 09:48:48;;;;;;;5.40;3.40;;;;;;;33.40;33.26;99495.05;105938;1255;60423;-80
2023/05/23 09:51:15;;;;;;;5.60;3.50;;;;;;;33.94;32.60;99496.50;105616;1254;73155;-78
2023/05/23 09:53:42;;;;;;;7.00;3.60;;;;;;;34.50;31.89;99491.52;105691;1254;70608;-76
2023/05/23 09:56:10;;;;;;;5.00;3.90;;;;;;;34.94;31.26;99485.23;105811;1257;63767;-79
2023/05/23 09:58:39;;;;;;;6.30;3.40;;;;;;;35.32;31.05;99481.33;105945;1259;59685;-77
2023/05/23 10:01:08;;;;;;;4.30;3.10;;;;;;;35.60;30.83;99486.51;105877;1257;59624;-77
2023/05/23 10:03:41;;;;;;;4.20;3.50;;;;;;;35.79;30.64;99486.77;105939;1254;63006;-78
2023/05/23 10:06:12;;;;;;;4.20;3.30;;;;;;;35.84;30.46;99482.21;105923;1257;61757;-78
2023/05/23 10:08:42;;;;;;;7.10;3.70;;;;;;;35.90;30.31;99485.40;105763;1259;63716;-78
2023/05/23 10:11:13;;;;;;;4.70;3.90;;;;;;;35.83;30.03;99489.44;105889;1254;59640;-78
2023/05/23 10:13:44;;;;;;;3.90;3.20;;;;;;;35.45;30.21;99490.17;105933;1254;59727;-76
2023/05/23 10:16:21;;;;;;;8.80;5.00;;;;;;;35.08;30.51;99492.70;105792;1254;62909;-78
2023/05/23 10:18:55;;;;;;;5.60;3.30;;;;;;;34.88;30.54;99493.77;106029;1258;60565;-77
2023/05/23 10:21:24;;;;;;;3.90;3.50;;;;;;;34.72;30.52;99493.98;107515;1254;64022;-78
2023/05/23 10:23:52;;;;;;;5.30;3.60;;;;;;;34.57;30.78;99490.59;108042;1254;59625;-78
2023/05/23 10:26:19;;;;;;;6.00;3.60;;;;;;;34.50;31.01;99489.56;107888;1253;59208;-79
2023/05/23 10:28:46;;;;;;;7.10;3.40;;;;;;;34.56;30.96;99489.49;106373;1253;72028;-79
2023/05/23 10:31:14;;;;;;;4.50;3.20;;;;;;;34.67;30.74;99487.67;105862;1254;69537;-76
2023/05/23 10:33:43;;;;;;;5.50;3.10;;;;;;;34.83;30.57;99481.98;106089;1254;72531;-80
2023/05/23 10:36:16;;;;;;;5.40;3.90;;;;;;;35.13;30.21;99474.27;106088;1259;59587;-78
2023/05/23 10:39:05;;;;;;;3.60;3.00;;;;;;;35.40;30.16;99470.42;106109;1258;59731;-78
2023/05/23 10:41:40;;;;;;;3.60;3.30;;;;;;;35.75;30.02;99472.11;106908;1254;64175;-80
2023/05/23 10:44:14;;;;;;;4.70;3.10;;;;;;;36.27;29.46;99473.67;107128;1254;61377;-76
2023/05/23 10:46:57;;;;;;;5.40;2.90;;;;;;;36.70;29.03;99470.41;106844;1254;63847;-77
2023/05/23 10:49:42;;;;;;;5.60;4.00;;;;;;;36.88;28.58;99467.69;106583;1259;59717;-76
2023/05/23 10:52:11;;;;;;;3.90;3.40;;;;;;;37.15;28.44;99463.55;106091;1259;59726;-80
2023/05/23 10:54:49;;;;;;;4.30;3.70;;;;;;;37.60;28.24;99464.13;105959;1254;65157;-79
2023/05/23 10:57:18;;;;;;;4.90;3.30;;;;;;;38.02;27.98;99464.64;105831;1254;61391;-78
2023/05/23 10:59:46;;;;;;;3.70;3.30;;;;;;;38.31;27.54;99462.87;105671;1254;62690;-78
2023/05/23 11:02:14;;;;;;;4.50;3.40;;;;;;;38.28;27.45;99462.26;105710;1254;59727;-79
2023/05/23 11:04:42;;;;;;;4.20;3.30;;;;;;;38.17;27.58;99461.98;105720;1257;59670;-77
2023/05/23 11:07:30;;;;;;;3.90;3.40;;;;;;;38.06;27.78;99458.86;105801;1254;65040;-77
2023/05/23 11:10:12;;;;;;;6.10;3.50;;;;;;;38.16;27.47;99455.93;105917;1254;60317;-78
2023/05/23 11:12:41;;;;;;;3.60;3.30;;;;;;;38.40;27.29;99456.95;105843;1258;62664;-78
2023/05/23 11:15:22;;;;;;;5.20;3.30;;;;;;;38.70;27.17;99455.48;105781;1254;59635;-79
2023/05/23 11:17:56;;;;;;;7.30;3.40;;;;;;;39.08;26.78;99455.47;105898;1254;59762;-79
2023/05/23 11:20:26;;;;;;;6.00;3.20;;;;;;;39.39;26.47;99447.27;105678;1254;62921;-78
2023/05/23 11:23:06;;;;;;;7.60;3.60;;;;;;;39.63;26.39;99445.54;105813;1257;62435;-78
2023/05/23 11:25:44;;;;;;;5.10;3.30;;;;;;;39.95;26.32;99444.73;105514;1261;62604;-78
2023/05/23 11:28:12;;;;;;;5.60;3.60;;;;;;;40.21;25.92;99444.65;105859;1257;59774;-76
2023/05/23 11:30:40;;;;;;;4.10;3.10;;;;;;;40.43;25.74;99444.98;105822;1254;59695;-78
2023/05/23 11:33:12;;;;;;;6.50;3.30;;;;;;;40.70;25.75;99442.70;105946;1254;62831;-77
2023/05/23 11:35:44;;;;;;;6.00;3.30;;;;;;;40.73;25.46;99446.64;105831;1257;60164;-78
2023/05/23 11:38:13;;;;;;;4.60;3.50;;;;;;;40.13;25.82;99446.17;105965;1254;62476;-78
2023/05/23 11:40:42;;;;;;;8.20;3.70;;;;;;;39.44;26.25;99444.70;106670;1255;59615;-79
2023/05/23 11:43:12;;;;;;;6.20;3.60;;;;;;;38.99;26.60;99441.88;107413;1258;59717;-79